Time;durP1;ratioP1;P1;durP2;ratioP2;P2;SDS_P1;SDS_P2;PMS_P1;PMS_P2;Temp;Humidity;BMP_temperature;BMP_pressure;BME280_temperature;BME280_humidity;BME280_pressure;Samples;Min_cycle;Max_cycle;Signal;HPM_P1;HPM_P2
2024/04/13 00:00:29;;;;;;;3.53;2.78;;;;;;;;;;5496626;26;20006;-79
2024/04/13 00:02:56;;;;;;;2.95;2.45;;;;;;;;;;5492220;26;20035;-78
2024/04/13 00:05:24;;;;;;;5.00;2.78;;;;;;;;;;5485454;26;20017;-79
2024/04/13 00:07:52;;;;;;;5.30;3.05;;;;;;;;;;5510301;25;19994;-79
2024/04/13 00:10:20;;;;;;;4.95;2.47;;;;;;;;;;5485529;26;20143;-79
2024/04/13 00:12:47;;;;;;;5.32;3.00;;;;;;;;;;5483960;26;20355;-79
2024/04/13 00:15:15;;;;;;;3.75;2.50;;;;;;;;;;5484613;26;20036;-79
2024/04/13 00:17:43;;;;;;;3.20;2.60;;;;;;;;;;5497538;26;20078;-79
2024/04/13 00:20:10;;;;;;;3.47;3.17;;;;;;;;;;5499180;26;20002;-79
2024/04/13 00:22:38;;;;;;;4.07;3.08;;;;;;;;;;5498538;26;19998;-79
2024/04/13 00:25:06;;;;;;;5.32;3.08;;;;;;;;;;5499682;26;20026;-79
2024/04/13 00:27:34;;;;;;;4.45;2.85;;;;;;;;;;5500503;26;20324;-78
2024/04/13 00:30:01;;;;;;;3.53;2.83;;;;;;;;;;5493889;26;20002;-79
2024/04/13 00:32:29;;;;;;;3.10;2.80;;;;;;;;;;5470089;26;20001;-79
2024/04/13 00:34:56;;;;;;;3.50;2.45;;;;;;;;;;5478532;26;20005;-78
2024/04/13 00:37:25;;;;;;;3.28;2.95;;;;;;;;;;5473635;26;20005;-79
2024/04/13 00:39:54;;;;;;;5.68;2.80;;;;;;;;;;5492458;26;20013;-79
2024/04/13 00:42:22;;;;;;;3.33;2.55;;;;;;;;;;5497283;26;20471;-79
2024/04/13 00:45:01;;;;;;;4.25;2.58;;;;;;;;;;5496252;26;19998;-79
2024/04/13 00:47:29;;;;;;;5.07;3.00;;;;;;;;;;5485588;26;19998;-78
2024/04/13 00:49:56;;;;;;;3.47;3.00;;;;;;;;;;5492860;26;20414;-79
2024/04/13 00:52:24;;;;;;;4.38;2.85;;;;;;;;;;5512953;26;20002;-79
2024/04/13 00:54:55;;;;;;;2.85;2.47;;;;;;;;;;5483732;26;20010;-79
2024/04/13 00:57:29;;;;;;;5.22;3.55;;;;;;;;;;5501743;26;20009;-78
2024/04/13 00:59:57;;;;;;;3.75;2.80;;;;;;;;;;5493306;26;20373;-78
2024/04/13 01:02:28;;;;;;;4.47;2.63;;;;;;;;;;5486379;26;20002;-79
2024/04/13 01:04:57;;;;;;;5.18;2.80;;;;;;;;;;5517505;26;20006;-78
2024/04/13 01:07:25;;;;;;;4.22;2.60;;;;;;;;;;5471659;26;20015;-78
2024/04/13 01:09:54;;;;;;;3.85;2.58;;;;;;;;;;5486944;26;19994;-79
2024/04/13 01:12:22;;;;;;;2.80;2.47;;;;;;;;;;5474235;26;20067;-78
2024/04/13 01:14:51;;;;;;;3.28;2.45;;;;;;;;;;5486897;26;20014;-79
2024/04/13 01:17:19;;;;;;;3.85;3.05;;;;;;;;;;5524372;26;20328;-79
2024/04/13 01:19:46;;;;;;;4.63;2.55;;;;;;;;;;5497825;26;20013;-79
2024/04/13 01:22:15;;;;;;;7.22;3.28;;;;;;;;;;5510976;26;20034;-78
2024/04/13 01:24:42;;;;;;;9.27;3.03;;;;;;;;;;5497674;26;19994;-79
2024/04/13 01:27:11;;;;;;;3.15;2.90;;;;;;;;;;5489883;26;20072;-79
2024/04/13 01:29:39;;;;;;;3.13;2.78;;;;;;;;;;5488169;26;20474;-79
2024/04/13 01:32:06;;;;;;;2.85;2.65;;;;;;;;;;5496638;26;20056;-79
2024/04/13 01:34:34;;;;;;;3.78;2.85;;;;;;;;;;5482494;26;20044;-81
2024/04/13 01:37:01;;;;;;;3.47;2.95;;;;;;;;;;5482644;26;20002;-79
2024/04/13 01:39:29;;;;;;;6.18;2.97;;;;;;;;;;5468200;26;20343;-79
2024/04/13 01:41:56;;;;;;;4.47;2.35;;;;;;;;;;5487911;26;20083;-81
2024/04/13 01:44:24;;;;;;;4.28;3.00;;;;;;;;;;5526937;26;20038;-79
2024/04/13 01:46:51;;;;;;;6.03;2.90;;;;;;;;;;5491241;26;20043;-79
2024/04/13 01:49:19;;;;;;;4.22;3.08;;;;;;;;;;5499041;26;20041;-79
2024/04/13 01:51:48;;;;;;;3.30;2.75;;;;;;;;;;5494179;26;19994;-77
2024/04/13 01:54:15;;;;;;;5.30;3.08;;;;;;;;;;5480540;26;20473;-78
2024/04/13 01:56:43;;;;;;;2.80;2.60;;;;;;;;;;5479580;26;20456;-78
2024/04/13 01:59:10;;;;;;;5.63;2.83;;;;;;;;;;5473760;26;20009;-79
2024/04/13 02:01:38;;;;;;;3.80;2.38;;;;;;;;;;5479310;26;20468;-78
2024/04/13 02:04:06;;;;;;;3.30;3.00;;;;;;;;;;5493040;26;20380;-79
2024/04/13 02:06:33;;;;;;;3.33;2.70;;;;;;;;;;5480798;26;20027;-78
2024/04/13 02:09:01;;;;;;;4.40;3.00;;;;;;;;;;5482756;26;20443;-79
2024/04/13 02:11:28;;;;;;;3.90;2.97;;;;;;;;;;5496156;26;20026;-78
2024/04/13 02:13:56;;;;;;;3.50;2.80;;;;;;;;;;5483656;26;20468;-78
2024/04/13 02:16:24;;;;;;;2.92;2.63;;;;;;;;;;5487350;26;20439;-78
2024/04/13 02:18:52;;;;;;;3.30;3.00;;;;;;;;;;5474266;26;20009;-79
2024/04/13 02:21:20;;;;;;;5.43;3.15;;;;;;;;;;5493777;26;20331;-78
2024/04/13 02:23:48;;;;;;;3.72;3.17;;;;;;;;;;5479603;26;19998;-78
2024/04/13 02:26:15;;;;;;;4.47;3.47;;;;;;;;;;5479176;26;20450;-78
2024/04/13 02:28:43;;;;;;;3.70;3.30;;;;;;;;;;5480168;26;20042;-80
2024/04/13 02:31:10;;;;;;;5.10;3.40;;;;;;;;;;5503448;26;20016;-78
2024/04/13 02:33:39;;;;;;;4.88;3.10;;;;;;;;;;5487505;26;19998;-78
2024/04/13 02:36:07;;;;;;;3.30;3.00;;;;;;;;;;5490076;26;20002;-78
2024/04/13 02:38:34;;;;;;;5.90;3.20;;;;;;;;;;5470614;26;20010;-79
2024/04/13 02:41:03;;;;;;;4.13;3.38;;;;;;;;;;5499434;26;20033;-78
2024/04/13 02:43:32;;;;;;;3.90;2.70;;;;;;;;;;5498254;26;20034;-78
2024/04/13 02:46:08;;;;;;;3.20;2.90;;;;;;;;;;5503211;26;20470;-78
2024/04/13 02:48:40;;;;;;;3.00;2.80;;;;;;;;;;5469332;26;20006;-78
2024/04/13 02:51:08;;;;;;;4.35;3.20;;;;;;;;;;5472582;26;20456;-78
2024/04/13 02:53:37;;;;;;;5.90;3.78;;;;;;;;;;5473394;26;20027;-78
2024/04/13 02:56:04;;;;;;;3.85;3.28;;;;;;;;;;5479415;26;20023;-78
2024/04/13 02:58:32;;;;;;;3.38;3.17;;;;;;;;;;5495369;26;20006;-78
2024/04/13 03:01:00;;;;;;;6.00;3.63;;;;;;;;;;5497170;26;20013;-78
2024/04/13 03:03:28;;;;;;;5.50;3.03;;;;;;;;;;5497643;26;20034;-78
2024/04/13 03:05:59;;;;;;;3.03;2.83;;;;;;;;;;5493010;26;20007;-78
2024/04/13 03:08:26;;;;;;;3.05;2.83;;;;;;;;;;5471126;26;20038;-78
2024/04/13 03:10:58;;;;;;;3.33;3.00;;;;;;;;;;5498058;26;20002;-79
2024/04/13 03:13:26;;;;;;;3.45;3.13;;;;;;;;;;5498960;26;19998;-79
2024/04/13 03:15:59;;;;;;;4.55;2.90;;;;;;;;;;5527027;25;20017;-78
2024/04/13 03:18:27;;;;;;;4.80;3.03;;;;;;;;;;5497408;26;19999;-78
2024/04/13 03:20:55;;;;;;;3.17;2.95;;;;;;;;;;5527747;25;20012;-79
2024/04/13 03:23:22;;;;;;;5.78;2.95;;;;;;;;;;5498149;26;20398;-78
2024/04/13 03:25:51;;;;;;;5.55;3.47;;;;;;;;;;5480888;26;20001;-78
2024/04/13 03:28:23;;;;;;;3.63;3.00;;;;;;;;;;5483625;26;19998;-79
2024/04/13 03:30:51;;;;;;;5.90;3.10;;;;;;;;;;5525386;26;20051;-78
2024/04/13 03:33:18;;;;;;;4.30;3.30;;;;;;;;;;5509184;26;20348;-78
2024/04/13 03:35:46;;;;;;;4.68;3.10;;;;;;;;;;5480303;26;20066;-78
2024/04/13 03:38:13;;;;;;;4.78;3.03;;;;;;;;;;5494482;26;20014;-78
2024/04/13 03:40:41;;;;;;;2.92;2.72;;;;;;;;;;5495398;26;20002;-78
2024/04/13 03:43:08;;;;;;;5.70;3.10;;;;;;;;;;5508480;26;20416;-78
2024/04/13 03:45:35;;;;;;;3.92;2.70;;;;;;;;;;5482800;26;19998;-78
2024/04/13 03:48:03;;;;;;;5.10;2.70;;;;;;;;;;5489353;26;20077;-78
2024/04/13 03:50:31;;;;;;;4.70;2.50;;;;;;;;;;5508837;26;19998;-78
2024/04/13 03:52:58;;;;;;;7.60;2.60;;;;;;;;;;5476745;26;20462;-78
2024/04/13 03:55:26;;;;;;;32.20;17.77;;;;;;;;;;5471414;26;20328;-78
2024/04/13 03:57:53;;;;;;;29.83;19.42;;;;;;;;;;5471257;26;20030;-78
2024/04/13 04:00:21;;;;;;;10.13;6.65;;;;;;;;;;5482447;26;20026;-78
2024/04/13 04:02:48;;;;;;;6.40;5.20;;;;;;;;;;5522638;26;20010;-78
2024/04/13 04:05:17;;;;;;;12.15;8.10;;;;;;;;;;5487211;26;20034;-80
2024/04/13 04:07:45;;;;;;;20.85;12.38;;;;;;;;;;5471741;26;20003;-78
2024/04/13 04:10:12;;;;;;;11.30;7.80;;;;;;;;;;5479556;26;20005;-78
2024/04/13 04:12:40;;;;;;;14.43;9.27;;;;;;;;;;5508561;25;20006;-78
2024/04/13 04:15:07;;;;;;;14.50;8.93;;;;;;;;;;5488652;26;20031;-80
2024/04/13 04:17:35;;;;;;;12.90;6.95;;;;;;;;;;5485700;26;20014;-80
2024/04/13 04:20:02;;;;;;;9.38;7.10;;;;;;;;;;5494524;26;20010;-80
2024/04/13 04:22:30;;;;;;;7.70;5.20;;;;;;;;;;5483129;26;20471;-78
2024/04/13 04:24:58;;;;;;;8.05;6.05;;;;;;;;;;5485176;26;19999;-80
2024/04/13 04:27:27;;;;;;;8.20;5.47;;;;;;;;;;5507517;26;20034;-78
2024/04/13 04:29:55;;;;;;;7.00;5.75;;;;;;;;;;5492955;26;20025;-78
2024/04/13 04:32:23;;;;;;;8.07;5.82;;;;;;;;;;5508679;26;20009;-78
2024/04/13 04:34:51;;;;;;;7.93;4.75;;;;;;;;;;5480363;26;20006;-78
2024/04/13 04:37:19;;;;;;;6.30;4.15;;;;;;;;;;5480202;26;20332;-78
2024/04/13 04:39:46;;;;;;;5.30;3.75;;;;;;;;;;5508736;26;19998;-78
2024/04/13 04:42:13;;;;;;;5.20;4.70;;;;;;;;;;5486933;26;20006;-78
2024/04/13 04:44:41;;;;;;;8.60;5.40;;;;;;;;;;5487775;26;19990;-78
2024/04/13 04:47:10;;;;;;;7.15;5.53;;;;;;;;;;5525725;26;20017;-78
2024/04/13 04:49:38;;;;;;;7.57;5.00;;;;;;;;;;5495343;26;20038;-78
2024/04/13 04:52:06;;;;;;;6.28;5.68;;;;;;;;;;5491750;26;20495;-79
2024/04/13 04:54:34;;;;;;;6.47;4.97;;;;;;;;;;5487849;26;20375;-79
2024/04/13 04:57:01;;;;;;;7.97;4.72;;;;;;;;;;5500396;26;20002;-78
2024/04/13 04:59:29;;;;;;;5.38;4.90;;;;;;;;;;5499016;26;19998;-78
2024/04/13 05:01:57;;;;;;;5.00;4.53;;;;;;;;;;5490453;26;20009;-80
2024/04/13 05:04:26;;;;;;;5.55;5.05;;;;;;;;;;5473249;26;19999;-78
2024/04/13 05:06:54;;;;;;;6.10;5.50;;;;;;;;;;5472891;26;20011;-78
2024/04/13 05:09:22;;;;;;;4.93;4.53;;;;;;;;;;5508341;26;20159;-78
2024/04/13 05:11:50;;;;;;;6.25;5.57;;;;;;;;;;5479787;26;20014;-78
2024/04/13 05:14:19;;;;;;;5.68;5.10;;;;;;;;;;5478006;26;19994;-78
2024/04/13 05:16:47;;;;;;;7.03;4.75;;;;;;;;;;5493395;26;20015;-78
2024/04/13 05:19:14;;;;;;;5.35;4.65;;;;;;;;;;5480180;26;20000;-78
2024/04/13 05:21:42;;;;;;;4.63;4.32;;;;;;;;;;5508791;26;20036;-78
2024/04/13 05:24:10;;;;;;;5.15;3.83;;;;;;;;;;5496661;26;20044;-79
2024/04/13 05:26:38;;;;;;;4.25;3.85;;;;;;;;;;5479683;26;20672;-80
2024/04/13 05:29:05;;;;;;;5.95;3.97;;;;;;;;;;5485903;26;20512;-79
2024/04/13 05:31:32;;;;;;;4.18;3.88;;;;;;;;;;5479564;26;20013;-80
2024/04/13 05:34:00;;;;;;;4.70;3.97;;;;;;;;;;5522849;25;20033;-79
2024/04/13 05:36:28;;;;;;;4.13;3.72;;;;;;;;;;5495367;26;20020;-80
2024/04/13 05:38:55;;;;;;;4.85;4.30;;;;;;;;;;5493353;26;20002;-80
2024/04/13 05:41:23;;;;;;;3.92;3.38;;;;;;;;;;5508868;26;20463;-80
2024/04/13 05:43:50;;;;;;;4.93;4.13;;;;;;;;;;5495212;26;19994;-79
2024/04/13 05:46:18;;;;;;;14.07;8.55;;;;;;;;;;5509689;26;20030;-80
2024/04/13 05:48:46;;;;;;;13.05;7.90;;;;;;;;;;5495359;26;20002;-79
2024/04/13 05:51:13;;;;;;;16.80;7.57;;;;;;;;;;5481868;26;20333;-80
2024/04/13 05:53:41;;;;;;;9.35;5.70;;;;;;;;;;5495407;26;19995;-80
2024/04/13 05:56:08;;;;;;;4.38;2.97;;;;;;;;;;5494857;26;20021;-80
2024/04/13 05:58:40;;;;;;;4.63;2.90;;;;;;;;;;5493482;26;20002;-79
2024/04/13 06:01:08;;;;;;;3.15;2.90;;;;;;;;;;5493354;26;20017;-80
2024/04/13 06:03:36;;;;;;;3.38;2.38;;;;;;;;;;5495065;26;20003;-79
2024/04/13 06:06:03;;;;;;;2.65;2.22;;;;;;;;;;5490138;26;19998;-80
2024/04/13 06:08:31;;;;;;;6.07;1.88;;;;;;;;;;5486170;26;19998;-79
2024/04/13 06:11:03;;;;;;;1.75;1.60;;;;;;;;;;5504688;26;20010;-79
2024/04/13 06:13:30;;;;;;;2.08;1.88;;;;;;;;;;5486274;26;19995;-79
2024/04/13 06:16:02;;;;;;;4.03;2.15;;;;;;;;;;5503732;25;20452;-80
2024/04/13 06:18:29;;;;;;;3.05;1.98;;;;;;;;;;5524152;26;20003;-80
2024/04/13 06:20:57;;;;;;;7.22;5.60;;;;;;;;;;5492652;26;20356;-80
2024/04/13 06:23:24;;;;;;;2.03;1.83;;;;;;;;;;5484706;26;19998;-80
2024/04/13 06:25:52;;;;;;;1.60;1.50;;;;;;;;;;5525195;26;20020;-81
2024/04/13 06:28:23;;;;;;;1.77;1.65;;;;;;;;;;5488584;26;20328;-80
2024/04/13 06:30:51;;;;;;;4.43;1.92;;;;;;;;;;5496313;26;20475;-80
2024/04/13 06:33:19;;;;;;;1.45;1.35;;;;;;;;;;5475797;26;19995;-80
2024/04/13 06:35:50;;;;;;;2.40;1.80;;;;;;;;;;5474957;26;20003;-79
2024/04/13 06:38:23;;;;;;;1.35;1.25;;;;;;;;;;5475146;26;20027;-80
2024/04/13 06:40:52;;;;;;;3.45;1.70;;;;;;;;;;5488139;26;20049;-80
2024/04/13 06:43:19;;;;;;;1.35;1.17;;;;;;;;;;5472628;26;20007;-79
2024/04/13 06:45:47;;;;;;;2.28;1.35;;;;;;;;;;5487890;26;19990;-79
2024/04/13 06:48:15;;;;;;;3.70;1.23;;;;;;;;;;5465674;26;20048;-80
2024/04/13 06:50:44;;;;;;;2.88;1.33;;;;;;;;;;5510164;25;19995;-80
2024/04/13 06:53:12;;;;;;;7.97;7.28;;;;;;;;;;5525817;26;20006;-80
2024/04/13 06:55:39;;;;;;;2.05;1.60;;;;;;;;;;5495868;26;19998;-80
2024/04/13 06:58:07;;;;;;;5.10;1.73;;;;;;;;;;5494002;26;20423;-80
2024/04/13 07:00:34;;;;;;;3.15;2.90;;;;;;;;;;5526140;26;20022;-80
2024/04/13 07:03:03;;;;;;;1.67;1.35;;;;;;;;;;5495617;26;20329;-80
2024/04/13 07:05:31;;;;;;;1.23;1.13;;;;;;;;;;5489300;26;20393;-80
2024/04/13 07:07:59;;;;;;;2.35;1.00;;;;;;;;;;5507521;26;20003;-80
2024/04/13 07:10:26;;;;;;;1.75;0.93;;;;;;;;;;5527593;25;20444;-81
2024/04/13 07:12:54;;;;;;;1.17;1.08;;;;;;;;;;5505387;26;20018;-80
2024/04/13 07:15:21;;;;;;;1.50;1.40;;;;;;;;;;5498617;26;20017;-81
2024/04/13 07:17:49;;;;;;;3.33;1.20;;;;;;;;;;5497839;26;20339;-80
2024/04/13 07:20:17;;;;;;;5.45;1.35;;;;;;;;;;5497937;26;19998;-80
2024/04/13 07:22:45;;;;;;;1.17;1.08;;;;;;;;;;5494117;26;20017;-80
2024/04/13 07:25:12;;;;;;;1.15;0.85;;;;;;;;;;5495442;26;20008;-80
2024/04/13 07:27:40;;;;;;;2.08;0.93;;;;;;;;;;5524236;26;20038;-80
2024/04/13 07:30:08;;;;;;;1.02;0.93;;;;;;;;;;5480691;26;19999;-80
2024/04/13 07:32:36;;;;;;;2.28;1.15;;;;;;;;;;5509385;26;20463;-81
2024/04/13 07:35:03;;;;;;;34.38;20.00;;;;;;;;;;5489696;26;20013;-80
2024/04/13 07:37:31;;;;;;;11.05;6.50;;;;;;;;;;5473596;26;19995;-80
2024/04/13 07:39:58;;;;;;;2.35;1.42;;;;;;;;;;5491565;26;20069;-81
2024/04/13 07:42:28;;;;;;;1.65;1.40;;;;;;;;;;5487500;26;20444;-80
2024/04/13 07:44:56;;;;;;;3.08;1.60;;;;;;;;;;5521547;26;19998;-80
2024/04/13 07:47:23;;;;;;;4.15;1.88;;;;;;;;;;5515955;26;20003;-81
2024/04/13 07:49:54;;;;;;;5.68;2.20;;;;;;;;;;5489094;26;20044;-79
2024/04/13 07:52:21;;;;;;;3.30;2.08;;;;;;;;;;5496434;26;20001;-81
2024/04/13 07:54:51;;;;;;;3.55;2.20;;;;;;;;;;5495769;26;20009;-81
2024/04/13 07:57:19;;;;;;;5.43;2.30;;;;;;;;;;5487093;26;20010;-79
2024/04/13 07:59:47;;;;;;;2.90;1.92;;;;;;;;;;5484806;26;20006;-80
2024/04/13 08:02:15;;;;;;;4.35;2.10;;;;;;;;;;5495824;26;20009;-81
2024/04/13 08:04:43;;;;;;;4.50;2.00;;;;;;;;;;5511158;25;20002;-81
2024/04/13 08:07:10;;;;;;;5.57;1.90;;;;;;;;;;5476345;26;19998;-81
2024/04/13 08:09:41;;;;;;;3.63;1.60;;;;;;;;;;5474649;26;20034;-82
2024/04/13 08:12:12;;;;;;;4.32;1.50;;;;;;;;;;5491299;26;20014;-82
2024/04/13 08:14:39;;;;;;;2.20;1.40;;;;;;;;;;5474729;26;19999;-81
2024/04/13 08:17:07;;;;;;;3.83;1.30;;;;;;;;;;5497493;26;20014;-81
2024/04/13 08:19:34;;;;;;;2.15;1.48;;;;;;;;;;5498529;26;20043;-80
2024/04/13 08:22:02;;;;;;;3.90;1.20;;;;;;;;;;5492864;26;20006;-82
2024/04/13 08:24:30;;;;;;;1.73;1.13;;;;;;;;;;5473773;26;20003;-81
2024/04/13 08:26:57;;;;;;;3.17;1.30;;;;;;;;;;5488726;26;20002;-78
2024/04/13 08:29:25;;;;;;;3.53;1.48;;;;;;;;;;5477457;26;20002;-78
2024/04/13 08:31:52;;;;;;;7.43;1.50;;;;;;;;;;5485522;26;20344;-78
2024/04/13 08:34:20;;;;;;;9.07;1.77;;;;;;;;;;5489735;26;20002;-81
2024/04/13 08:36:48;;;;;;;5.75;0.98;;;;;;;;;;5523015;26;20039;-82
2024/04/13 08:39:15;;;;;;;3.67;1.33;;;;;;;;;;5493954;26;20006;-80
2024/04/13 08:42:06;;;;;;;3.83;1.20;;;;;;;;;;5479757;26;20003;-80
2024/04/13 08:44:34;;;;;;;2.60;1.10;;;;;;;;;;5521682;25;20439;-81
2024/04/13 08:47:02;;;;;;;2.28;1.13;;;;;;;;;;5493260;26;20007;-80
2024/04/13 08:49:31;;;;;;;3.35;1.30;;;;;;;;;;5492146;26;19997;-81
2024/04/13 08:51:59;;;;;;;3.30;0.80;;;;;;;;;;5496128;26;20006;-81
2024/04/13 08:54:30;;;;;;;4.90;1.20;;;;;;;;;;5494022;26;20013;-81
2024/04/13 08:56:59;;;;;;;4.82;0.90;;;;;;;;;;5524647;26;20052;-81
2024/04/13 08:59:27;;;;;;;1.48;0.90;;;;;;;;;;5495698;26;20070;-81
2024/04/13 09:01:56;;;;;;;6.18;1.00;;;;;;;;;;5493671;26;20017;-81
2024/04/13 09:04:23;;;;;;;4.20;1.20;;;;;;;;;;5495063;26;20026;-82
2024/04/13 09:06:52;;;;;;;3.70;0.93;;;;;;;;;;5524590;25;20002;-80
2024/04/13 09:09:20;;;;;;;2.13;0.80;;;;;;;;;;5494225;26;20012;-80
2024/04/13 09:11:47;;;;;;;4.53;0.50;;;;;;;;;;5494031;26;20325;-80
2024/04/13 09:14:15;;;;;;;1.63;0.98;;;;;;;;;;5493535;26;20002;-80
2024/04/13 09:16:45;;;;;;;1.50;0.70;;;;;;;;;;5496157;26;20034;-79
2024/04/13 09:19:14;;;;;;;2.00;0.90;;;;;;;;;;5479258;26;20013;-81
2024/04/13 09:21:42;;;;;;;3.75;0.82;;;;;;;;;;5496904;26;20009;-81
2024/04/13 09:24:11;;;;;;;1.55;0.65;;;;;;;;;;5496490;26;19998;-81
2024/04/13 09:26:42;;;;;;;5.03;0.80;;;;;;;;;;5497976;26;20003;-81
2024/04/13 09:29:11;;;;;;;1.45;0.60;;;;;;;;;;5490031;26;20398;-81
2024/04/13 09:31:40;;;;;;;1.52;0.88;;;;;;;;;;5473981;26;20023;-79
2024/04/13 09:34:07;;;;;;;1.17;0.70;;;;;;;;;;5495725;26;20082;-80
2024/04/13 09:36:35;;;;;;;2.10;0.70;;;;;;;;;;5495495;26;20051;-80
2024/04/13 09:39:06;;;;;;;0.98;0.65;;;;;;;;;;5493315;26;20002;-80
2024/04/13 09:41:33;;;;;;;4.00;1.20;;;;;;;;;;5494800;26;20040;-81
2024/04/13 09:44:01;;;;;;;3.30;0.85;;;;;;;;;;5491628;26;20020;-80
2024/04/13 09:46:28;;;;;;;5.68;0.95;;;;;;;;;;5521841;25;20013;-80
2024/04/13 09:48:58;;;;;;;2.38;0.70;;;;;;;;;;5521889;25;20012;-80
2024/04/13 09:51:26;;;;;;;3.90;0.55;;;;;;;;;;5495508;26;19998;-79
2024/04/13 09:53:55;;;;;;;1.85;0.82;;;;;;;;;;5494145;26;19999;-80
2024/04/13 09:56:22;;;;;;;2.08;0.63;;;;;;;;;;5492791;26;20030;-82
2024/04/13 09:58:50;;;;;;;3.28;0.38;;;;;;;;;;5491187;26;20455;-81
2024/04/13 10:01:18;;;;;;;0.95;0.70;;;;;;;;;;5492685;26;20014;-82
2024/04/13 10:03:45;;;;;;;2.10;0.50;;;;;;;;;;5493524;26;20012;-80
2024/04/13 10:06:15;;;;;;;0.52;0.50;;;;;;;;;;5481350;26;20013;-81
2024/04/13 10:08:43;;;;;;;4.18;0.60;;;;;;;;;;5494087;26;20016;-82
2024/04/13 10:11:11;;;;;;;1.83;0.82;;;;;;;;;;5494912;26;20042;-82
2024/04/13 10:13:41;;;;;;;23.77;1.80;;;;;;;;;;5495710;26;20022;-81
2024/04/13 10:16:09;;;;;;;1.42;0.70;;;;;;;;;;5494011;26;20002;-81
2024/04/13 10:18:37;;;;;;;4.03;1.05;;;;;;;;;;5495583;26;19994;-81
2024/04/13 10:21:08;;;;;;;0.98;0.88;;;;;;;;;;5493834;26;20038;-81
2024/04/13 10:23:42;;;;;;;2.38;0.80;;;;;;;;;;5493438;26;20378;-80
2024/04/13 10:26:10;;;;;;;2.83;0.60;;;;;;;;;;5495559;26;20006;-81
2024/04/13 10:28:38;;;;;;;2.58;0.70;;;;;;;;;;5495564;26;20030;-81
2024/04/13 10:31:05;;;;;;;2.10;0.80;;;;;;;;;;5494308;26;20009;-81
2024/04/13 10:33:33;;;;;;;1.00;0.75;;;;;;;;;;5491593;26;20079;-82
2024/04/13 10:36:00;;;;;;;2.53;0.70;;;;;;;;;;5493819;26;20400;-80
2024/04/13 10:38:29;;;;;;;1.00;0.90;;;;;;;;;;5493022;26;20006;-81
2024/04/13 10:40:57;;;;;;;2.90;0.68;;;;;;;;;;5493519;26;20340;-82
2024/04/13 10:43:25;;;;;;;2.85;0.60;;;;;;;;;;5492054;26;20400;-82
2024/04/13 10:45:54;;;;;;;2.22;0.80;;;;;;;;;;5478173;26;20006;-81
2024/04/13 10:48:22;;;;;;;4.47;0.77;;;;;;;;;;5471382;26;20014;-82
2024/04/13 10:50:50;;;;;;;1.02;0.63;;;;;;;;;;5482804;26;20021;-83
2024/04/13 10:53:27;;;;;;;2.97;0.70;;;;;;;;;;5480310;26;20035;-82
2024/04/13 10:55:56;;;;;;;1.38;0.60;;;;;;;;;;5487458;26;20396;-80
2024/04/13 10:58:31;;;;;;;5.10;1.00;;;;;;;;;;5487217;26;20035;-81
2024/04/13 11:00:59;;;;;;;1.63;0.80;;;;;;;;;;5501793;26;20483;-81
2024/04/13 11:03:29;;;;;;;1.95;0.68;;;;;;;;;;5482765;26;19998;-82
2024/04/13 11:05:57;;;;;;;1.60;0.60;;;;;;;;;;5508952;26;20002;-82
2024/04/13 11:08:25;;;;;;;0.95;0.63;;;;;;;;;;5503768;26;20006;-82
2024/04/13 11:10:56;;;;;;;1.55;0.73;;;;;;;;;;5506763;26;20055;-81
2024/04/13 11:13:25;;;;;;;2.78;0.80;;;;;;;;;;5504567;26;20051;-79
2024/04/13 11:15:53;;;;;;;1.80;0.80;;;;;;;;;;5530388;26;20002;-78
2024/04/13 11:18:21;;;;;;;1.33;1.00;;;;;;;;;;5497388;26;19994;-81
2024/04/13 11:20:52;;;;;;;1.48;1.00;;;;;;;;;;5508368;26;20402;-80
2024/04/13 11:23:19;;;;;;;3.05;0.90;;;;;;;;;;5516140;26;20364;-79
2024/04/13 11:25:47;;;;;;;3.78;0.82;;;;;;;;;;5460854;26;20011;-83
2024/04/13 11:28:15;;;;;;;3.47;0.60;;;;;;;;;;5474171;26;20332;-80
2024/04/13 11:30:43;;;;;;;1.38;0.60;;;;;;;;;;5474050;26;20011;-81
2024/04/13 11:33:11;;;;;;;2.30;0.90;;;;;;;;;;5488274;26;19998;-79
2024/04/13 11:35:39;;;;;;;3.45;0.98;;;;;;;;;;5475349;26;20003;-80
2024/04/13 11:38:07;;;;;;;1.70;0.90;;;;;;;;;;5480078;26;20383;-81
2024/04/13 11:40:37;;;;;;;1.80;0.77;;;;;;;;;;5512892;26;20047;-81
2024/04/13 11:43:05;;;;;;;3.78;1.10;;;;;;;;;;5493057;26;20009;-80
2024/04/13 11:45:33;;;;;;;3.92;0.70;;;;;;;;;;5485709;26;20347;-80
2024/04/13 11:48:04;;;;;;;2.80;0.60;;;;;;;;;;5496651;26;20392;-82
2024/04/13 11:50:33;;;;;;;2.47;0.65;;;;;;;;;;5499553;26;20002;-81
2024/04/13 11:53:01;;;;;;;1.75;0.80;;;;;;;;;;5483917;26;19995;-81
2024/04/13 11:55:29;;;;;;;2.65;0.77;;;;;;;;;;5496649;26;20010;-81
2024/04/13 11:57:57;;;;;;;1.35;0.68;;;;;;;;;;5494525;26;20018;-81
2024/04/13 12:00:25;;;;;;;2.65;0.73;;;;;;;;;;5488393;26;20002;-81
2024/04/13 12:02:55;;;;;;;1.10;0.55;;;;;;;;;;5496700;26;20002;-82
2024/04/13 12:05:22;;;;;;;1.42;0.80;;;;;;;;;;5474139;26;19999;-83
2024/04/13 12:07:50;;;;;;;0.85;0.60;;;;;;;;;;5490939;26;19998;-81
2024/04/13 12:10:17;;;;;;;3.30;0.90;;;;;;;;;;5502583;26;20022;-81
2024/04/13 12:12:45;;;;;;;3.10;0.70;;;;;;;;;;5489324;26;19999;-80
2024/04/13 12:15:13;;;;;;;0.95;0.60;;;;;;;;;;5474906;26;19999;-81
2024/04/13 12:17:40;;;;;;;1.00;0.70;;;;;;;;;;5478103;26;20480;-79
2024/04/13 12:20:08;;;;;;;1.90;0.60;;;;;;;;;;5487942;26;20044;-81
2024/04/13 12:22:36;;;;;;;2.70;0.80;;;;;;;;;;5475336;26;20463;-78
2024/04/13 12:25:03;;;;;;;3.92;0.95;;;;;;;;;;5478977;26;20006;-80
2024/04/13 12:27:31;;;;;;;3.47;1.00;;;;;;;;;;5505104;26;20009;-80
2024/04/13 12:29:58;;;;;;;3.25;1.10;;;;;;;;;;5499326;26;20002;-79
2024/04/13 12:32:27;;;;;;;0.85;0.63;;;;;;;;;;5498676;26;20478;-80
2024/04/13 12:34:55;;;;;;;1.55;0.75;;;;;;;;;;5495244;26;20010;-81
2024/04/13 12:37:22;;;;;;;1.55;0.70;;;;;;;;;;5488837;26;20496;-79
2024/04/13 12:39:50;;;;;;;1.40;0.73;;;;;;;;;;5476896;26;20013;-80
2024/04/13 12:42:19;;;;;;;1.95;1.00;;;;;;;;;;5486991;26;19990;-80
2024/04/13 12:44:47;;;;;;;1.67;0.80;;;;;;;;;;5519417;26;20009;-80
2024/04/13 12:47:16;;;;;;;2.55;1.00;;;;;;;;;;5472052;26;20031;-80
2024/04/13 12:49:44;;;;;;;1.27;0.70;;;;;;;;;;5476790;26;20002;-80
2024/04/13 12:52:11;;;;;;;0.82;0.60;;;;;;;;;;5529890;26;20042;-81
2024/04/13 12:54:40;;;;;;;1.67;0.75;;;;;;;;;;5496547;26;20010;-82
2024/04/13 12:57:08;;;;;;;1.70;0.93;;;;;;;;;;5496029;26;20539;-79
2024/04/13 12:59:36;;;;;;;4.95;0.82;;;;;;;;;;5493212;26;20014;-80
2024/04/13 13:02:03;;;;;;;1.27;0.80;;;;;;;;;;5490831;26;19998;-80
2024/04/13 13:04:31;;;;;;;1.98;0.85;;;;;;;;;;5490471;26;20002;-80
2024/04/13 13:06:59;;;;;;;2.55;0.63;;;;;;;;;;5492361;26;20009;-81
2024/04/13 13:09:26;;;;;;;2.35;0.80;;;;;;;;;;5489871;26;20013;-80
2024/04/13 13:11:53;;;;;;;1.85;0.85;;;;;;;;;;5490541;26;20013;-80
2024/04/13 13:14:21;;;;;;;2.38;0.70;;;;;;;;;;5489578;26;20018;-79
2024/04/13 13:16:48;;;;;;;4.13;0.75;;;;;;;;;;5521032;25;20009;-79
2024/04/13 13:19:16;;;;;;;2.15;0.90;;;;;;;;;;5490176;26;20016;-78
2024/04/13 13:21:44;;;;;;;0.95;0.60;;;;;;;;;;5491736;26;20017;-81
2024/04/13 13:24:11;;;;;;;5.35;0.80;;;;;;;;;;5492310;26;20032;-79
2024/04/13 13:26:39;;;;;;;0.75;0.75;;;;;;;;;;5492609;26;20459;-81
2024/04/13 13:29:06;;;;;;;4.10;0.77;;;;;;;;;;5492712;26;20017;-79
2024/04/13 13:31:34;;;;;;;10.40;1.20;;;;;;;;;;5490492;26;20399;-79
2024/04/13 13:34:05;;;;;;;3.60;0.68;;;;;;;;;;5490255;26;20026;-79
2024/04/13 13:36:34;;;;;;;3.08;0.85;;;;;;;;;;5488742;26;20004;-80
2024/04/13 13:39:02;;;;;;;4.47;0.90;;;;;;;;;;5491839;26;20010;-79
2024/04/13 13:41:30;;;;;;;2.08;0.70;;;;;;;;;;5491918;26;20385;-80
2024/04/13 13:43:59;;;;;;;1.70;0.60;;;;;;;;;;5492803;26;20006;-80
2024/04/13 13:46:26;;;;;;;19.52;1.38;;;;;;;;;;5502131;26;20009;-81
2024/04/13 13:48:55;;;;;;;0.88;0.60;;;;;;;;;;5493168;26;20014;-81
2024/04/13 13:51:23;;;;;;;2.05;0.60;;;;;;;;;;5492727;26;20006;-78
2024/04/13 13:53:52;;;;;;;2.83;0.85;;;;;;;;;;5490376;26;20007;-79
2024/04/13 13:56:19;;;;;;;3.20;0.85;;;;;;;;;;5493184;26;20005;-81
2024/04/13 13:58:47;;;;;;;3.90;0.77;;;;;;;;;;5493196;26;20006;-81
2024/04/13 14:01:14;;;;;;;2.80;0.60;;;;;;;;;;5509320;25;20002;-77
2024/04/13 14:03:43;;;;;;;2.67;0.60;;;;;;;;;;5491248;26;20082;-78
2024/04/13 14:06:10;;;;;;;1.85;0.70;;;;;;;;;;5488931;26;19998;-78
2024/04/13 14:08:38;;;;;;;7.50;1.17;;;;;;;;;;5489955;26;20010;-78
2024/04/13 14:11:05;;;;;;;3.00;0.77;;;;;;;;;;5489609;26;20031;-77
2024/04/13 14:13:33;;;;;;;0.80;0.80;;;;;;;;;;5488371;26;20007;-78
2024/04/13 14:16:00;;;;;;;2.35;0.82;;;;;;;;;;5489404;26;20471;-80
2024/04/13 14:18:28;;;;;;;3.45;0.90;;;;;;;;;;5480601;26;20007;-78
2024/04/13 14:20:56;;;;;;;2.40;0.88;;;;;;;;;;5487715;26;20002;-79
2024/04/13 14:23:28;;;;;;;2.38;0.77;;;;;;;;;;5489580;26;20496;-78
2024/04/13 14:25:55;;;;;;;0.98;0.70;;;;;;;;;;5488938;26;19998;-79
2024/04/13 14:28:23;;;;;;;1.00;0.90;;;;;;;;;;5489274;26;20043;-76
2024/04/13 14:30:50;;;;;;;0.70;0.70;;;;;;;;;;5492347;26;20491;-80
2024/04/13 14:33:18;;;;;;;2.58;0.98;;;;;;;;;;5490653;26;20142;-79
2024/04/13 14:35:48;;;;;;;1.85;0.90;;;;;;;;;;5489814;26;20466;-79
2024/04/13 14:38:15;;;;;;;6.95;1.25;;;;;;;;;;5519327;26;20486;-77
2024/04/13 14:40:43;;;;;;;1.30;1.02;;;;;;;;;;5491044;26;20470;-79
2024/04/13 14:43:10;;;;;;;1.10;0.80;;;;;;;;;;5488671;26;20010;-78
2024/04/13 14:45:38;;;;;;;3.15;0.93;;;;;;;;;;5490375;26;20009;-81
2024/04/13 14:48:06;;;;;;;4.13;0.90;;;;;;;;;;5494401;26;20045;-80